sensor_id;sensor_type;location;lat;lon;timestamp;P1;durP1;ratioP1;P2;durP2;ratioP2
72797;SDS011;61084;55.816;37.036;2023-10-19T00:01:22;5.68;;;2.20;;
72797;SDS011;61084;55.816;37.036;2023-10-19T00:03:52;4.10;;;2.17;;
72797;SDS011;61084;55.816;37.036;2023-10-19T00:06:22;5.22;;;2.10;;
72797;SDS011;61084;55.816;37.036;2023-10-19T00:08:49;6.22;;;2.85;;
72797;SDS011;61084;55.816;37.036;2023-10-19T00:11:18;3.08;;;1.83;;
72797;SDS011;61084;55.816;37.036;2023-10-19T00:13:48;3.28;;;2.00;;
72797;SDS011;61084;55.816;37.036;2023-10-19T00:16:20;5.18;;;2.17;;
72797;SDS011;61084;55.816;37.036;2023-10-19T00:18:51;3.40;;;1.80;;
72797;SDS011;61084;55.816;37.036;2023-10-19T00:21:17;2.85;;;1.90;;
72797;SDS011;61084;55.816;37.036;2023-10-19T00:23:50;2.55;;;1.70;;
72797;SDS011;61084;55.816;37.036;2023-10-19T00:26:27;2.83;;;1.70;;
72797;SDS011;61084;55.816;37.036;2023-10-19T00:28:57;5.20;;;1.90;;
72797;SDS011;61084;55.816;37.036;2023-10-19T00:33:53;2.72;;;1.42;;
72797;SDS011;61084;55.816;37.036;2023-10-19T00:36:20;3.85;;;1.60;;
72797;SDS011;61084;55.816;37.036;2023-10-19T00:38:48;3.85;;;2.15;;
72797;SDS011;61084;55.816;37.036;2023-10-19T00:41:14;3.83;;;1.50;;
72797;SDS011;61084;55.816;37.036;2023-10-19T00:43:50;3.08;;;1.23;;
72797;SDS011;61084;55.816;37.036;2023-10-19T00:46:23;3.88;;;1.58;;
72797;SDS011;61084;55.816;37.036;2023-10-19T00:48:57;3.58;;;1.65;;
72797;SDS011;61084;55.816;37.036;2023-10-19T00:51:38;4.75;;;1.98;;
72797;SDS011;61084;55.816;37.036;2023-10-19T00:54:14;6.95;;;1.90;;
72797;SDS011;61084;55.816;37.036;2023-10-19T00:56:47;2.42;;;1.50;;
72797;SDS011;61084;55.816;37.036;2023-10-19T00:59:21;2.45;;;1.42;;
72797;SDS011;61084;55.816;37.036;2023-10-19T01:01:50;3.88;;;1.63;;
72797;SDS011;61084;55.816;37.036;2023-10-19T01:04:20;3.60;;;1.35;;
72797;SDS011;61084;55.816;37.036;2023-10-19T01:06:49;2.05;;;1.35;;
72797;SDS011;61084;55.816;37.036;2023-10-19T01:09:28;2.25;;;1.48;;
72797;SDS011;61084;55.816;37.036;2023-10-19T01:11:54;1.70;;;1.30;;
72797;SDS011;61084;55.816;37.036;2023-10-19T01:16:48;2.53;;;1.42;;
72797;SDS011;61084;55.816;37.036;2023-10-19T01:19:15;3.35;;;2.17;;
72797;SDS011;61084;55.816;37.036;2023-10-19T01:21:46;3.90;;;1.92;;
72797;SDS011;61084;55.816;37.036;2023-10-19T01:24:21;2.85;;;2.00;;
72797;SDS011;61084;55.816;37.036;2023-10-19T01:27:13;3.10;;;1.67;;
72797;SDS011;61084;55.816;37.036;2023-10-19T01:29:39;2.22;;;1.52;;
72797;SDS011;61084;55.816;37.036;2023-10-19T01:34:36;3.88;;;1.95;;
72797;SDS011;61084;55.816;37.036;2023-10-19T01:37:02;5.05;;;2.00;;
72797;SDS011;61084;55.816;37.036;2023-10-19T01:39:32;3.17;;;1.70;;
72797;SDS011;61084;55.816;37.036;2023-10-19T01:42:01;3.53;;;1.85;;
72797;SDS011;61084;55.816;37.036;2023-10-19T01:44:30;4.63;;;2.50;;
72797;SDS011;61084;55.816;37.036;2023-10-19T01:46:57;3.85;;;1.98;;
72797;SDS011;61084;55.816;37.036;2023-10-19T01:49:26;4.57;;;1.90;;
72797;SDS011;61084;55.816;37.036;2023-10-19T01:51:53;7.30;;;2.10;;
72797;SDS011;61084;55.816;37.036;2023-10-19T01:54:22;3.83;;;1.92;;
72797;SDS011;61084;55.816;37.036;2023-10-19T01:56:51;3.80;;;2.05;;
72797;SDS011;61084;55.816;37.036;2023-10-19T01:59:23;4.05;;;1.63;;
72797;SDS011;61084;55.816;37.036;2023-10-19T02:01:54;4.60;;;2.50;;
72797;SDS011;61084;55.816;37.036;2023-10-19T02:04:20;3.80;;;1.80;;
72797;SDS011;61084;55.816;37.036;2023-10-19T02:06:51;2.50;;;1.75;;
72797;SDS011;61084;55.816;37.036;2023-10-19T02:09:18;3.58;;;2.25;;
72797;SDS011;61084;55.816;37.036;2023-10-19T02:12:15;4.30;;;2.10;;
72797;SDS011;61084;55.816;37.036;2023-10-19T02:14:43;3.28;;;2.10;;
72797;SDS011;61084;55.816;37.036;2023-10-19T02:17:09;4.82;;;2.30;;
72797;SDS011;61084;55.816;37.036;2023-10-19T02:19:35;3.85;;;1.95;;
72797;SDS011;61084;55.816;37.036;2023-10-19T02:22:04;5.15;;;2.78;;
72797;SDS011;61084;55.816;37.036;2023-10-19T02:24:34;6.10;;;2.22;;
72797;SDS011;61084;55.816;37.036;2023-10-19T02:27:00;5.82;;;2.17;;
72797;SDS011;61084;55.816;37.036;2023-10-19T02:31:54;4.50;;;1.90;;
72797;SDS011;61084;55.816;37.036;2023-10-19T02:36:48;3.45;;;2.20;;
72797;SDS011;61084;55.816;37.036;2023-10-19T02:39:15;3.63;;;2.20;;
72797;SDS011;61084;55.816;37.036;2023-10-19T02:41:43;4.80;;;1.88;;
72797;SDS011;61084;55.816;37.036;2023-10-19T02:44:13;3.33;;;2.03;;
72797;SDS011;61084;55.816;37.036;2023-10-19T02:46:44;3.17;;;1.92;;
72797;SDS011;61084;55.816;37.036;2023-10-19T02:49:12;4.22;;;2.03;;
72797;SDS011;61084;55.816;37.036;2023-10-19T02:51:57;3.60;;;2.20;;
72797;SDS011;61084;55.816;37.036;2023-10-19T02:54:30;2.78;;;1.83;;
72797;SDS011;61084;55.816;37.036;2023-10-19T02:56:58;3.65;;;2.00;;
72797;SDS011;61084;55.816;37.036;2023-10-19T02:59:25;2.45;;;2.00;;
72797;SDS011;61084;55.816;37.036;2023-10-19T03:02:00;3.78;;;2.15;;
72797;SDS011;61084;55.816;37.036;2023-10-19T03:04:47;3.45;;;2.30;;
72797;SDS011;61084;55.816;37.036;2023-10-19T03:07:14;3.85;;;2.25;;
72797;SDS011;61084;55.816;37.036;2023-10-19T03:09:41;4.55;;;2.33;;
72797;SDS011;61084;55.816;37.036;2023-10-19T03:12:19;3.28;;;2.38;;
72797;SDS011;61084;55.816;37.036;2023-10-19T03:14:46;3.95;;;2.45;;
72797;SDS011;61084;55.816;37.036;2023-10-19T03:17:13;6.00;;;3.00;;
72797;SDS011;61084;55.816;37.036;2023-10-19T03:19:40;4.93;;;2.90;;
72797;SDS011;61084;55.816;37.036;2023-10-19T03:22:05;4.07;;;2.50;;
72797;SDS011;61084;55.816;37.036;2023-10-19T03:24:31;6.60;;;3.20;;
72797;SDS011;61084;55.816;37.036;2023-10-19T03:27:07;7.45;;;3.53;;
72797;SDS011;61084;55.816;37.036;2023-10-19T03:29:50;5.18;;;2.83;;
72797;SDS011;61084;55.816;37.036;2023-10-19T03:32:21;3.83;;;2.90;;
72797;SDS011;61084;55.816;37.036;2023-10-19T03:34:52;4.95;;;2.55;;
72797;SDS011;61084;55.816;37.036;2023-10-19T03:37:23;3.55;;;2.47;;
72797;SDS011;61084;55.816;37.036;2023-10-19T03:39:51;6.20;;;3.17;;
72797;SDS011;61084;55.816;37.036;2023-10-19T03:42:17;5.38;;;3.17;;
72797;SDS011;61084;55.816;37.036;2023-10-19T03:44:46;6.75;;;3.40;;
72797;SDS011;61084;55.816;37.036;2023-10-19T03:47:15;6.43;;;3.00;;
72797;SDS011;61084;55.816;37.036;2023-10-19T03:49:46;7.38;;;3.20;;
72797;SDS011;61084;55.816;37.036;2023-10-19T03:52:13;7.38;;;3.42;;
72797;SDS011;61084;55.816;37.036;2023-10-19T03:54:40;7.63;;;4.28;;
72797;SDS011;61084;55.816;37.036;2023-10-19T03:57:11;7.68;;;4.50;;
72797;SDS011;61084;55.816;37.036;2023-10-19T03:59:45;8.35;;;4.45;;
72797;SDS011;61084;55.816;37.036;2023-10-19T04:02:15;10.65;;;5.32;;
72797;SDS011;61084;55.816;37.036;2023-10-19T04:04:45;7.13;;;4.75;;
72797;SDS011;61084;55.816;37.036;2023-10-19T04:07:16;10.18;;;5.18;;
72797;SDS011;61084;55.816;37.036;2023-10-19T04:09:52;8.70;;;5.05;;
72797;SDS011;61084;55.816;37.036;2023-10-19T04:12:35;8.43;;;4.72;;
72797;SDS011;61084;55.816;37.036;2023-10-19T04:15:06;6.70;;;4.85;;
72797;SDS011;61084;55.816;37.036;2023-10-19T04:17:36;6.53;;;4.18;;
72797;SDS011;61084;55.816;37.036;2023-10-19T04:20:02;7.25;;;4.25;;
72797;SDS011;61084;55.816;37.036;2023-10-19T04:22:49;6.15;;;4.35;;
72797;SDS011;61084;55.816;37.036;2023-10-19T04:25:17;8.15;;;4.25;;
72797;SDS011;61084;55.816;37.036;2023-10-19T04:27:54;7.88;;;4.78;;
72797;SDS011;61084;55.816;37.036;2023-10-19T04:30:22;6.38;;;4.10;;
72797;SDS011;61084;55.816;37.036;2023-10-19T04:32:49;7.80;;;4.90;;
72797;SDS011;61084;55.816;37.036;2023-10-19T04:35:16;8.43;;;4.50;;
72797;SDS011;61084;55.816;37.036;2023-10-19T04:37:49;9.05;;;4.28;;
72797;SDS011;61084;55.816;37.036;2023-10-19T04:40:18;6.32;;;4.13;;
72797;SDS011;61084;55.816;37.036;2023-10-19T04:45:11;6.88;;;3.95;;
72797;SDS011;61084;55.816;37.036;2023-10-19T04:50:07;7.35;;;4.18;;
72797;SDS011;61084;55.816;37.036;2023-10-19T04:52:36;7.55;;;4.82;;
72797;SDS011;61084;55.816;37.036;2023-10-19T04:55:02;9.45;;;4.53;;
72797;SDS011;61084;55.816;37.036;2023-10-19T04:57:31;7.07;;;4.25;;
72797;SDS011;61084;55.816;37.036;2023-10-19T04:59:57;7.13;;;4.82;;
72797;SDS011;61084;55.816;37.036;2023-10-19T05:02:23;6.55;;;4.35;;
72797;SDS011;61084;55.816;37.036;2023-10-19T05:04:49;8.82;;;4.82;;
72797;SDS011;61084;55.816;37.036;2023-10-19T05:07:15;7.32;;;4.05;;
72797;SDS011;61084;55.816;37.036;2023-10-19T05:09:44;7.15;;;4.47;;
72797;SDS011;61084;55.816;37.036;2023-10-19T05:12:11;7.38;;;4.68;;
72797;SDS011;61084;55.816;37.036;2023-10-19T05:14:38;6.97;;;4.28;;
72797;SDS011;61084;55.816;37.036;2023-10-19T05:17:05;6.13;;;4.18;;
72797;SDS011;61084;55.816;37.036;2023-10-19T05:19:31;6.60;;;4.28;;
72797;SDS011;61084;55.816;37.036;2023-10-19T05:21:59;9.85;;;5.03;;
72797;SDS011;61084;55.816;37.036;2023-10-19T05:24:25;9.82;;;6.55;;
72797;SDS011;61084;55.816;37.036;2023-10-19T05:26:51;9.90;;;5.50;;
72797;SDS011;61084;55.816;37.036;2023-10-19T05:29:19;8.95;;;5.35;;
72797;SDS011;61084;55.816;37.036;2023-10-19T05:31:53;7.68;;;4.88;;
72797;SDS011;61084;55.816;37.036;2023-10-19T05:34:20;8.15;;;5.07;;
72797;SDS011;61084;55.816;37.036;2023-10-19T05:36:47;10.15;;;5.78;;
72797;SDS011;61084;55.816;37.036;2023-10-19T05:39:15;8.52;;;5.30;;
72797;SDS011;61084;55.816;37.036;2023-10-19T05:41:41;7.72;;;5.35;;
72797;SDS011;61084;55.816;37.036;2023-10-19T05:44:08;13.02;;;5.63;;
72797;SDS011;61084;55.816;37.036;2023-10-19T05:46:35;8.90;;;5.80;;
72797;SDS011;61084;55.816;37.036;2023-10-19T05:51:29;7.65;;;4.82;;
72797;SDS011;61084;55.816;37.036;2023-10-19T05:53:56;8.98;;;5.55;;
72797;SDS011;61084;55.816;37.036;2023-10-19T05:56:28;8.88;;;5.90;;
72797;SDS011;61084;55.816;37.036;2023-10-19T05:58:56;8.98;;;5.43;;
72797;SDS011;61084;55.816;37.036;2023-10-19T06:01:23;9.05;;;5.10;;
72797;SDS011;61084;55.816;37.036;2023-10-19T06:03:50;8.93;;;5.47;;
72797;SDS011;61084;55.816;37.036;2023-10-19T06:06:17;8.73;;;5.43;;
72797;SDS011;61084;55.816;37.036;2023-10-19T06:08:43;6.88;;;5.32;;
72797;SDS011;61084;55.816;37.036;2023-10-19T06:11:08;9.65;;;5.32;;
72797;SDS011;61084;55.816;37.036;2023-10-19T06:13:34;8.38;;;5.38;;
72797;SDS011;61084;55.816;37.036;2023-10-19T06:16:00;7.05;;;4.88;;
72797;SDS011;61084;55.816;37.036;2023-10-19T06:18:26;9.13;;;5.43;;
72797;SDS011;61084;55.816;37.036;2023-10-19T06:20:54;7.25;;;5.00;;
72797;SDS011;61084;55.816;37.036;2023-10-19T06:23:20;8.20;;;5.88;;
72797;SDS011;61084;55.816;37.036;2023-10-19T06:25:47;7.15;;;4.57;;
72797;SDS011;61084;55.816;37.036;2023-10-19T06:28:13;6.65;;;4.65;;
72797;SDS011;61084;55.816;37.036;2023-10-19T06:30:39;8.95;;;5.35;;
72797;SDS011;61084;55.816;37.036;2023-10-19T06:33:06;7.00;;;4.40;;
72797;SDS011;61084;55.816;37.036;2023-10-19T06:35:32;6.90;;;4.30;;
72797;SDS011;61084;55.816;37.036;2023-10-19T06:38:02;8.57;;;4.90;;
72797;SDS011;61084;55.816;37.036;2023-10-19T06:40:30;5.68;;;3.92;;
72797;SDS011;61084;55.816;37.036;2023-10-19T06:42:57;7.18;;;4.60;;
72797;SDS011;61084;55.816;37.036;2023-10-19T06:45:24;5.70;;;4.22;;
72797;SDS011;61084;55.816;37.036;2023-10-19T06:47:51;6.55;;;4.00;;
72797;SDS011;61084;55.816;37.036;2023-10-19T06:50:19;6.35;;;3.38;;
72797;SDS011;61084;55.816;37.036;2023-10-19T06:52:46;5.82;;;3.83;;
72797;SDS011;61084;55.816;37.036;2023-10-19T06:55:16;4.88;;;3.22;;
72797;SDS011;61084;55.816;37.036;2023-10-19T06:57:48;4.90;;;4.00;;
72797;SDS011;61084;55.816;37.036;2023-10-19T07:00:19;4.80;;;3.60;;
72797;SDS011;61084;55.816;37.036;2023-10-19T07:02:48;5.38;;;3.60;;
72797;SDS011;61084;55.816;37.036;2023-10-19T07:05:21;5.28;;;3.85;;
72797;SDS011;61084;55.816;37.036;2023-10-19T07:07:50;5.50;;;4.05;;
72797;SDS011;61084;55.816;37.036;2023-10-19T07:10:19;5.15;;;3.63;;
72797;SDS011;61084;55.816;37.036;2023-10-19T07:12:46;5.85;;;4.07;;
72797;SDS011;61084;55.816;37.036;2023-10-19T07:15:14;5.78;;;3.85;;
72797;SDS011;61084;55.816;37.036;2023-10-19T07:17:40;6.70;;;4.10;;
72797;SDS011;61084;55.816;37.036;2023-10-19T07:20:07;4.95;;;3.70;;
72797;SDS011;61084;55.816;37.036;2023-10-19T07:22:40;7.13;;;4.15;;
72797;SDS011;61084;55.816;37.036;2023-10-19T07:25:07;7.53;;;3.83;;
72797;SDS011;61084;55.816;37.036;2023-10-19T07:27:34;8.07;;;4.05;;
72797;SDS011;61084;55.816;37.036;2023-10-19T07:30:00;5.70;;;4.18;;
72797;SDS011;61084;55.816;37.036;2023-10-19T07:32:31;7.68;;;4.82;;
72797;SDS011;61084;55.816;37.036;2023-10-19T07:34:56;6.20;;;4.10;;
72797;SDS011;61084;55.816;37.036;2023-10-19T07:37:22;6.85;;;3.78;;
72797;SDS011;61084;55.816;37.036;2023-10-19T07:39:48;4.97;;;3.10;;
72797;SDS011;61084;55.816;37.036;2023-10-19T07:42:15;5.78;;;3.30;;
72797;SDS011;61084;55.816;37.036;2023-10-19T07:47:10;7.93;;;3.70;;
72797;SDS011;61084;55.816;37.036;2023-10-19T07:49:38;4.30;;;3.20;;
72797;SDS011;61084;55.816;37.036;2023-10-19T07:52:05;6.38;;;3.60;;
72797;SDS011;61084;55.816;37.036;2023-10-19T07:54:36;4.53;;;3.53;;
72797;SDS011;61084;55.816;37.036;2023-10-19T07:57:04;5.07;;;3.13;;
72797;SDS011;61084;55.816;37.036;2023-10-19T07:59:32;4.78;;;3.30;;
72797;SDS011;61084;55.816;37.036;2023-10-19T08:01:58;4.40;;;3.10;;
72797;SDS011;61084;55.816;37.036;2023-10-19T08:04:28;5.50;;;2.90;;
72797;SDS011;61084;55.816;37.036;2023-10-19T08:06:55;4.85;;;3.08;;
72797;SDS011;61084;55.816;37.036;2023-10-19T08:09:22;7.93;;;3.00;;
72797;SDS011;61084;55.816;37.036;2023-10-19T08:11:48;4.07;;;2.85;;
72797;SDS011;61084;55.816;37.036;2023-10-19T08:14:15;3.55;;;2.70;;
72797;SDS011;61084;55.816;37.036;2023-10-19T08:16:41;3.13;;;2.58;;
72797;SDS011;61084;55.816;37.036;2023-10-19T08:19:09;4.45;;;2.60;;
72797;SDS011;61084;55.816;37.036;2023-10-19T08:21:37;5.05;;;3.00;;
72797;SDS011;61084;55.816;37.036;2023-10-19T08:24:03;3.90;;;2.97;;
72797;SDS011;61084;55.816;37.036;2023-10-19T08:26:32;6.00;;;3.50;;
72797;SDS011;61084;55.816;37.036;2023-10-19T08:28:58;5.30;;;3.47;;
72797;SDS011;61084;55.816;37.036;2023-10-19T08:31:24;5.70;;;3.53;;
72797;SDS011;61084;55.816;37.036;2023-10-19T08:33:50;4.72;;;3.20;;
72797;SDS011;61084;55.816;37.036;2023-10-19T08:36:17;5.28;;;3.15;;
72797;SDS011;61084;55.816;37.036;2023-10-19T08:38:46;4.13;;;3.03;;
72797;SDS011;61084;55.816;37.036;2023-10-19T08:41:15;7.28;;;3.10;;
72797;SDS011;61084;55.816;37.036;2023-10-19T08:43:41;5.35;;;3.25;;
72797;SDS011;61084;55.816;37.036;2023-10-19T08:46:07;5.35;;;3.50;;
72797;SDS011;61084;55.816;37.036;2023-10-19T08:48:35;4.90;;;3.03;;
72797;SDS011;61084;55.816;37.036;2023-10-19T08:51:03;4.88;;;3.33;;
72797;SDS011;61084;55.816;37.036;2023-10-19T08:53:36;3.88;;;3.08;;
72797;SDS011;61084;55.816;37.036;2023-10-19T08:56:08;5.35;;;3.30;;
72797;SDS011;61084;55.816;37.036;2023-10-19T08:58:35;5.70;;;3.13;;
72797;SDS011;61084;55.816;37.036;2023-10-19T09:01:01;4.20;;;2.72;;
72797;SDS011;61084;55.816;37.036;2023-10-19T09:03:35;5.32;;;3.13;;
72797;SDS011;61084;55.816;37.036;2023-10-19T09:06:02;4.10;;;2.55;;
72797;SDS011;61084;55.816;37.036;2023-10-19T10:08:59;3.20;;;1.70;;
72797;SDS011;61084;55.816;37.036;2023-10-19T10:13:52;3.80;;;1.88;;
72797;SDS011;61084;55.816;37.036;2023-10-19T10:16:27;2.40;;;1.70;;
72797;SDS011;61084;55.816;37.036;2023-10-19T10:21:24;2.80;;;1.40;;
72797;SDS011;61084;55.816;37.036;2023-10-19T10:23:54;2.67;;;1.63;;
72797;SDS011;61084;55.816;37.036;2023-10-19T10:26:27;1.38;;;1.00;;
72797;SDS011;61084;55.816;37.036;2023-10-19T10:29:18;3.50;;;1.73;;
72797;SDS011;61084;55.816;37.036;2023-10-19T10:31:49;3.40;;;1.42;;
72797;SDS011;61084;55.816;37.036;2023-10-19T10:37:05;1.55;;;1.17;;
72797;SDS011;61084;55.816;37.036;2023-10-19T10:39:35;2.05;;;1.15;;
72797;SDS011;61084;55.816;37.036;2023-10-19T10:42:09;1.65;;;1.20;;
72797;SDS011;61084;55.816;37.036;2023-10-19T10:44:38;1.70;;;1.02;;
72797;SDS011;61084;55.816;37.036;2023-10-19T10:47:15;1.30;;;1.10;;
72797;SDS011;61084;55.816;37.036;2023-10-19T10:54:56;1.60;;;1.10;;
72797;SDS011;61084;55.816;37.036;2023-10-19T10:57:22;2.55;;;1.20;;
72797;SDS011;61084;55.816;37.036;2023-10-19T11:00:08;3.25;;;1.10;;
72797;SDS011;61084;55.816;37.036;2023-10-19T11:02:44;1.85;;;1.30;;
72797;SDS011;61084;55.816;37.036;2023-10-19T11:05:13;3.33;;;1.70;;
72797;SDS011;61084;55.816;37.036;2023-10-19T11:07:41;2.40;;;1.40;;
72797;SDS011;61084;55.816;37.036;2023-10-19T11:10:27;2.67;;;1.60;;
72797;SDS011;61084;55.816;37.036;2023-10-19T11:12:59;2.15;;;1.88;;
72797;SDS011;61084;55.816;37.036;2023-10-19T11:15:33;2.28;;;1.27;;
72797;SDS011;61084;55.816;37.036;2023-10-19T11:17:59;1.65;;;1.05;;
72797;SDS011;61084;55.816;37.036;2023-10-19T11:20:26;1.73;;;1.00;;
72797;SDS011;61084;55.816;37.036;2023-10-19T11:22:55;2.53;;;0.93;;
72797;SDS011;61084;55.816;37.036;2023-10-19T11:25:23;3.67;;;0.80;;
72797;SDS011;61084;55.816;37.036;2023-10-19T11:27:56;1.10;;;0.57;;
72797;SDS011;61084;55.816;37.036;2023-10-19T11:30:27;1.50;;;0.70;;
72797;SDS011;61084;55.816;37.036;2023-10-19T11:32:53;1.05;;;0.70;;
72797;SDS011;61084;55.816;37.036;2023-10-19T11:35:27;3.33;;;0.73;;
72797;SDS011;61084;55.816;37.036;2023-10-19T11:37:56;1.35;;;0.73;;
72797;SDS011;61084;55.816;37.036;2023-10-19T11:40:24;0.45;;;0.38;;
72797;SDS011;61084;55.816;37.036;2023-10-19T11:42:52;0.55;;;0.32;;
72797;SDS011;61084;55.816;37.036;2023-10-19T11:45:22;0.47;;;0.30;;
72797;SDS011;61084;55.816;37.036;2023-10-19T11:47:50;1.77;;;0.40;;
72797;SDS011;61084;55.816;37.036;2023-10-19T11:50:16;0.98;;;0.40;;
72797;SDS011;61084;55.816;37.036;2023-10-19T11:52:44;1.25;;;0.50;;
72797;SDS011;61084;55.816;37.036;2023-10-19T11:55:14;1.42;;;0.30;;
72797;SDS011;61084;55.816;37.036;2023-10-19T11:57:42;0.90;;;0.40;;
72797;SDS011;61084;55.816;37.036;2023-10-19T12:00:13;1.15;;;0.40;;
72797;SDS011;61084;55.816;37.036;2023-10-19T12:02:40;1.67;;;0.60;;
72797;SDS011;61084;55.816;37.036;2023-10-19T12:05:09;1.23;;;0.65;;
72797;SDS011;61084;55.816;37.036;2023-10-19T12:07:39;2.17;;;0.80;;
72797;SDS011;61084;55.816;37.036;2023-10-19T12:10:09;1.90;;;0.60;;
72797;SDS011;61084;55.816;37.036;2023-10-19T12:12:36;2.28;;;0.80;;
72797;SDS011;61084;55.816;37.036;2023-10-19T12:15:03;1.20;;;0.82;;
72797;SDS011;61084;55.816;37.036;2023-10-19T12:17:33;2.15;;;0.80;;
72797;SDS011;61084;55.816;37.036;2023-10-19T12:19:59;1.25;;;0.90;;
72797;SDS011;61084;55.816;37.036;2023-10-19T12:22:25;1.83;;;1.10;;
72797;SDS011;61084;55.816;37.036;2023-10-19T12:25:01;2.08;;;1.27;;
72797;SDS011;61084;55.816;37.036;2023-10-19T12:27:29;2.20;;;1.33;;
72797;SDS011;61084;55.816;37.036;2023-10-19T12:29:55;2.67;;;1.08;;
72797;SDS011;61084;55.816;37.036;2023-10-19T12:32:21;2.40;;;1.20;;
72797;SDS011;61084;55.816;37.036;2023-10-19T12:34:48;3.33;;;1.20;;
72797;SDS011;61084;55.816;37.036;2023-10-19T12:37:19;0.93;;;0.80;;
72797;SDS011;61084;55.816;37.036;2023-10-19T12:39:45;0.75;;;0.70;;
72797;SDS011;61084;55.816;37.036;2023-10-19T12:42:17;2.03;;;0.80;;
72797;SDS011;61084;55.816;37.036;2023-10-19T12:44:43;1.75;;;1.10;;
72797;SDS011;61084;55.816;37.036;2023-10-19T12:47:12;2.10;;;0.90;;
72797;SDS011;61084;55.816;37.036;2023-10-19T12:49:39;2.00;;;0.98;;
72797;SDS011;61084;55.816;37.036;2023-10-19T12:52:06;1.63;;;0.80;;
72797;SDS011;61084;55.816;37.036;2023-10-19T12:54:37;0.93;;;0.70;;
72797;SDS011;61084;55.816;37.036;2023-10-19T12:57:04;1.98;;;1.00;;
72797;SDS011;61084;55.816;37.036;2023-10-19T12:59:34;1.30;;;0.93;;
72797;SDS011;61084;55.816;37.036;2023-10-19T13:02:03;1.45;;;0.70;;
72797;SDS011;61084;55.816;37.036;2023-10-19T13:04:34;1.17;;;0.95;;
72797;SDS011;61084;55.816;37.036;2023-10-19T13:07:00;1.40;;;1.08;;
72797;SDS011;61084;55.816;37.036;2023-10-19T13:09:28;2.80;;;0.90;;
72797;SDS011;61084;55.816;37.036;2023-10-19T13:11:59;1.95;;;1.05;;
72797;SDS011;61084;55.816;37.036;2023-10-19T13:14:27;2.50;;;1.40;;
72797;SDS011;61084;55.816;37.036;2023-10-19T13:16:54;5.03;;;3.05;;
72797;SDS011;61084;55.816;37.036;2023-10-19T13:19:21;5.18;;;3.47;;
72797;SDS011;61084;55.816;37.036;2023-10-19T13:21:51;5.30;;;3.47;;
72797;SDS011;61084;55.816;37.036;2023-10-19T13:24:18;4.00;;;2.50;;
72797;SDS011;61084;55.816;37.036;2023-10-19T13:26:47;3.20;;;2.00;;
72797;SDS011;61084;55.816;37.036;2023-10-19T13:29:14;2.28;;;1.52;;
72797;SDS011;61084;55.816;37.036;2023-10-19T13:31:44;5.03;;;2.58;;
72797;SDS011;61084;55.816;37.036;2023-10-19T13:34:15;7.47;;;4.07;;
72797;SDS011;61084;55.816;37.036;2023-10-19T13:36:42;8.20;;;4.50;;
72797;SDS011;61084;55.816;37.036;2023-10-19T13:39:10;9.15;;;4.53;;
72797;SDS011;61084;55.816;37.036;2023-10-19T13:41:42;4.80;;;2.25;;
72797;SDS011;61084;55.816;37.036;2023-10-19T13:44:10;5.90;;;1.85;;
72797;SDS011;61084;55.816;37.036;2023-10-19T13:46:37;2.67;;;1.50;;
72797;SDS011;61084;55.816;37.036;2023-10-19T13:49:03;3.50;;;1.58;;
72797;SDS011;61084;55.816;37.036;2023-10-19T13:51:31;1.85;;;1.27;;
72797;SDS011;61084;55.816;37.036;2023-10-19T13:53:57;3.45;;;1.80;;
72797;SDS011;61084;55.816;37.036;2023-10-19T13:56:23;5.28;;;1.75;;
72797;SDS011;61084;55.816;37.036;2023-10-19T13:58:49;3.78;;;1.75;;
72797;SDS011;61084;55.816;37.036;2023-10-19T14:01:17;3.30;;;1.77;;
72797;SDS011;61084;55.816;37.036;2023-10-19T14:03:43;4.38;;;1.85;;
72797;SDS011;61084;55.816;37.036;2023-10-19T14:06:13;5.57;;;2.70;;
72797;SDS011;61084;55.816;37.036;2023-10-19T14:08:39;7.63;;;2.15;;
72797;SDS011;61084;55.816;37.036;2023-10-19T14:11:05;6.50;;;2.50;;
72797;SDS011;61084;55.816;37.036;2023-10-19T14:13:32;5.03;;;2.38;;
72797;SDS011;61084;55.816;37.036;2023-10-19T14:15:58;6.78;;;2.20;;
72797;SDS011;61084;55.816;37.036;2023-10-19T14:18:25;7.80;;;2.08;;
72797;SDS011;61084;55.816;37.036;2023-10-19T14:20:52;10.15;;;2.30;;
72797;SDS011;61084;55.816;37.036;2023-10-19T14:23:18;5.07;;;2.22;;
72797;SDS011;61084;55.816;37.036;2023-10-19T14:25:44;7.25;;;2.33;;
72797;SDS011;61084;55.816;37.036;2023-10-19T14:28:10;5.97;;;2.50;;
72797;SDS011;61084;55.816;37.036;2023-10-19T14:33:03;7.57;;;2.00;;
72797;SDS011;61084;55.816;37.036;2023-10-19T14:35:31;4.70;;;2.38;;
72797;SDS011;61084;55.816;37.036;2023-10-19T14:37:57;5.28;;;2.08;;
72797;SDS011;61084;55.816;37.036;2023-10-19T14:40:26;8.80;;;2.20;;
72797;SDS011;61084;55.816;37.036;2023-10-19T14:42:54;6.78;;;3.53;;
72797;SDS011;61084;55.816;37.036;2023-10-19T14:45:25;9.27;;;3.65;;
72797;SDS011;61084;55.816;37.036;2023-10-19T14:47:56;10.77;;;5.30;;
72797;SDS011;61084;55.816;37.036;2023-10-19T14:50:24;9.88;;;4.05;;
72797;SDS011;61084;55.816;37.036;2023-10-19T14:52:53;12.50;;;5.40;;
72797;SDS011;61084;55.816;37.036;2023-10-19T14:55:22;15.65;;;7.50;;
72797;SDS011;61084;55.816;37.036;2023-10-19T14:57:49;20.33;;;8.27;;
72797;SDS011;61084;55.816;37.036;2023-10-19T15:00:24;14.10;;;7.20;;
72797;SDS011;61084;55.816;37.036;2023-10-19T15:02:55;15.90;;;5.95;;
72797;SDS011;61084;55.816;37.036;2023-10-19T15:05:23;19.52;;;9.32;;
72797;SDS011;61084;55.816;37.036;2023-10-19T15:07:51;24.58;;;11.20;;
72797;SDS011;61084;55.816;37.036;2023-10-19T15:10:24;14.40;;;6.07;;
72797;SDS011;61084;55.816;37.036;2023-10-19T15:12:52;10.07;;;4.60;;
72797;SDS011;61084;55.816;37.036;2023-10-19T15:17:45;26.33;;;9.93;;
72797;SDS011;61084;55.816;37.036;2023-10-19T15:20:14;38.47;;;15.45;;
72797;SDS011;61084;55.816;37.036;2023-10-19T15:22:44;57.65;;;24.88;;
72797;SDS011;61084;55.816;37.036;2023-10-19T15:25:11;136.20;;;49.10;;
72797;SDS011;61084;55.816;37.036;2023-10-19T15:27:39;144.43;;;52.00;;
72797;SDS011;61084;55.816;37.036;2023-10-19T15:30:06;138.25;;;47.28;;
72797;SDS011;61084;55.816;37.036;2023-10-19T15:32:39;115.28;;;41.28;;
72797;SDS011;61084;55.816;37.036;2023-10-19T15:35:09;94.65;;;32.60;;
72797;SDS011;61084;55.816;37.036;2023-10-19T15:37:37;59.10;;;21.95;;
72797;SDS011;61084;55.816;37.036;2023-10-19T15:40:03;37.10;;;15.55;;
72797;SDS011;61084;55.816;37.036;2023-10-19T15:42:30;21.20;;;8.63;;
72797;SDS011;61084;55.816;37.036;2023-10-19T15:44:56;11.20;;;4.65;;
72797;SDS011;61084;55.816;37.036;2023-10-19T15:47:22;7.82;;;3.75;;
72797;SDS011;61084;55.816;37.036;2023-10-19T15:49:50;8.10;;;3.13;;
72797;SDS011;61084;55.816;37.036;2023-10-19T15:52:24;12.80;;;3.83;;
72797;SDS011;61084;55.816;37.036;2023-10-19T15:54:51;6.32;;;3.45;;
72797;SDS011;61084;55.816;37.036;2023-10-19T15:57:18;7.25;;;3.30;;
72797;SDS011;61084;55.816;37.036;2023-10-19T15:59:44;5.35;;;2.72;;
72797;SDS011;61084;55.816;37.036;2023-10-19T16:02:11;4.18;;;2.72;;
72797;SDS011;61084;55.816;37.036;2023-10-19T16:04:43;5.63;;;3.03;;
72797;SDS011;61084;55.816;37.036;2023-10-19T16:07:11;4.55;;;2.95;;
72797;SDS011;61084;55.816;37.036;2023-10-19T16:09:38;5.05;;;3.08;;
72797;SDS011;61084;55.816;37.036;2023-10-19T16:12:05;4.65;;;2.85;;
72797;SDS011;61084;55.816;37.036;2023-10-19T16:14:35;5.45;;;3.08;;
72797;SDS011;61084;55.816;37.036;2023-10-19T16:17:02;4.80;;;3.05;;
72797;SDS011;61084;55.816;37.036;2023-10-19T16:19:29;5.63;;;3.70;;
72797;SDS011;61084;55.816;37.036;2023-10-19T16:21:56;9.02;;;3.58;;
72797;SDS011;61084;55.816;37.036;2023-10-19T16:24:23;6.43;;;4.00;;